Time;durP1;ratioP1;P1;durP2;ratioP2;P2;SDS_P1;SDS_P2;PMS_P1;PMS_P2;Temp;Humidity;BMP_temperature;BMP_pressure;BME280_temperature;BME280_humidity;BME280_pressure;Samples;Min_cycle;Max_cycle;Signal;HPM_P1;HPM_P2
2021/10/25 08:39:46;;;;;;;19.00;5.20;;;11.90;99.90;;;;;;5085799;28;20075;-67
2021/10/25 08:43:07;;;;;;;20.52;5.18;;;12.00;99.90;;;;;;5088847;28;20059;-68
2021/10/25 08:45:35;;;;;;;27.20;5.47;;;12.00;99.90;;;;;;5089740;28;20093;-67
2021/10/25 08:48:03;;;;;;;18.08;3.53;;;12.20;99.90;;;;;;5072045;28;20074;-67
2021/10/25 08:50:34;;;;;;;14.57;3.97;;;12.30;99.90;;;;;;5073040;28;20058;-68
2021/10/25 08:53:01;;;;;;;16.55;4.20;;;12.50;99.90;;;;;;5091537;28;20456;-67
2021/10/25 08:55:28;;;;;;;12.73;3.45;;;12.60;99.90;;;;;;5091136;28;20399;-68
2021/10/25 08:57:55;;;;;;;17.13;4.25;;;12.60;99.90;;;;;;5089649;28;20044;-68
2021/10/25 09:00:45;;;;;;;11.90;3.67;;;12.70;99.90;;;;;;5090055;28;20058;-68
2021/10/25 09:03:13;;;;;;;20.48;3.72;;;12.80;99.90;;;;;;5107862;28;20058;-67
2021/10/25 09:05:49;;;;;;;16.23;4.45;;;12.90;99.90;;;;;;5095793;28;20055;-67
2021/10/25 09:08:17;;;;;;;20.60;4.10;;;12.90;99.90;;;;;;5058028;28;20051;-67
2021/10/25 09:10:45;;;;;;;16.60;4.15;;;13.00;99.90;;;;;;5072753;28;20093;-67
2021/10/25 09:13:20;;;;;;;21.70;3.85;;;13.00;99.90;;;;;;5072267;28;20499;-67
2021/10/25 09:15:57;;;;;;;15.63;4.10;;;13.20;99.90;;;;;;5090331;28;20091;-67
2021/10/25 09:18:28;;;;;;;16.27;4.60;;;13.40;99.90;;;;;;5090292;28;20044;-67
2021/10/25 09:21:05;;;;;;;14.63;3.50;;;13.50;99.90;;;;;;5088947;28;20472;-67
2021/10/25 09:23:42;;;;;;;14.95;3.40;;;13.70;99.90;;;;;;5089051;28;20140;-68
2021/10/25 09:26:11;;;;;;;14.63;4.75;;;13.70;99.90;;;;;;5088977;28;20487;-67
2021/10/25 09:28:50;;;;;;;11.63;3.67;;;13.70;99.90;;;;;;5088604;28;20052;-67
2021/10/25 09:31:31;;;;;;;12.32;3.20;;;13.80;99.90;;;;;;5092077;28;20084;-67
2021/10/25 09:34:08;;;;;;;9.52;2.95;;;13.80;99.80;;;;;;5109438;28;20060;-67
2021/10/25 09:36:42;;;;;;;10.73;3.22;;;13.80;99.30;;;;;;5092791;28;20047;-67
2021/10/25 09:50:02;;;;;;;5.68;2.65;;;13.70;99.20;;;;;;5088933;28;20146;-68
2021/10/25 09:52:33;;;;;;;9.67;2.70;;;13.70;98.50;;;;;;5088641;28;20135;-69
2021/10/25 09:55:03;;;;;;;13.20;3.88;;;13.70;98.50;;;;;;5088412;28;20062;-68
2021/10/25 09:57:50;;;;;;;12.55;3.22;;;13.70;97.70;;;;;;5089942;28;20179;-68
2021/10/25 10:00:18;;;;;;;13.02;3.20;;;13.70;98.40;;;;;;5089361;28;20051;-68
2021/10/25 10:02:46;;;;;;;10.75;3.90;;;13.80;98.80;;;;;;5102657;28;20054;-69
2021/10/25 10:05:15;;;;;;;6.97;2.20;;;14.00;98.50;;;;;;5092163;28;20047;-68
2021/10/25 10:07:44;;;;;;;7.47;3.10;;;14.00;98.10;;;;;;5108904;28;20059;-68
2021/10/25 10:10:13;;;;;;;11.88;3.20;;;14.10;98.30;;;;;;5101172;28;20491;-69
2021/10/25 10:12:42;;;;;;;9.02;2.20;;;14.10;97.90;;;;;;5071462;28;20051;-67
2021/10/25 10:15:10;;;;;;;6.32;2.00;;;14.20;97.70;;;;;;5091253;28;20056;-69
2021/10/25 10:18:00;;;;;;;6.55;2.30;;;14.20;97.10;;;;;;5071315;28;20483;-68
2021/10/25 10:20:52;;;;;;;4.85;1.80;;;14.30;97.00;;;;;;5068139;28;20059;-72
2021/10/25 10:23:19;;;;;;;4.78;1.75;;;14.30;96.40;;;;;;5097364;28;20051;-75
2021/10/25 10:25:51;;;;;;;5.40;2.78;;;14.20;96.90;;;;;;5075524;28;20412;-67
2021/10/25 10:28:37;;;;;;;8.93;3.30;;;14.30;96.00;;;;;;5092666;28;20044;-69
2021/10/25 10:31:24;;;;;;;17.15;13.48;;;14.30;95.50;;;;;;5087486;28;20056;-70
2021/10/25 10:33:54;;;;;;;8.30;2.90;;;14.30;95.00;;;;;;5089750;28;20094;-68
2021/10/25 10:36:31;;;;;;;6.80;2.28;;;14.30;95.40;;;;;;5097724;28;20116;-66
2021/10/25 10:39:04;;;;;;;7.30;2.10;;;14.30;95.90;;;;;;5076017;28;20055;-67
2021/10/25 10:41:58;;;;;;;9.20;2.28;;;14.30;95.60;;;;;;5075353;28;20090;-67
2021/10/25 10:44:29;;;;;;;6.90;2.30;;;14.40;95.90;;;;;;5092095;28;20054;-70
2021/10/25 10:47:09;;;;;;;7.05;2.05;;;14.30;95.90;;;;;;5091859;28;20080;-68
2021/10/25 10:49:39;;;;;;;7.75;2.08;;;14.40;95.30;;;;;;5093286;28;20051;-68
2021/10/25 10:52:56;;;;;;;9.18;2.65;;;14.40;95.50;;;;;;5090025;28;20501;-67
2021/10/25 10:55:08;;;;;;;7.22;2.20;;;14.40;95.40;;;;;;5070619;28;20444;-67
2021/10/25 11:00:48;;;;;;;6.97;2.22;;;14.60;96.00;;;;;;5083277;28;20526;-67
2021/10/25 11:03:25;;;;;;;9.45;4.10;;;14.60;95.90;;;;;;5079879;28;20113;-68
2021/10/25 11:06:09;;;;;;;6.97;2.30;;;14.70;95.00;;;;;;5092232;28;20040;-67
2021/10/25 11:08:38;;;;;;;6.78;2.05;;;14.70;94.30;;;;;;5093344;28;20150;-69
2021/10/25 11:11:18;;;;;;;8.38;2.55;;;14.70;93.90;;;;;;5091972;28;20452;-70
2021/10/25 11:13:58;;;;;;;7.75;2.30;;;14.60;93.40;;;;;;5091643;28;20044;-71
2021/10/25 11:18:59;;;;;;;7.72;2.50;;;14.60;94.30;;;;;;5091570;28;20074;-67
2021/10/25 11:21:35;;;;;;;8.07;2.20;;;14.60;93.60;;;;;;5091411;28;20071;-69
2021/10/25 11:24:05;;;;;;;9.20;2.30;;;14.60;94.00;;;;;;5091712;28;20074;-68
2021/10/25 11:26:43;;;;;;;8.13;1.80;;;14.60;93.30;;;;;;5091316;28;20087;-73
2021/10/25 11:29:13;;;;;;;11.75;2.50;;;14.60;94.50;;;;;;5091765;28;20067;-68
2021/10/25 11:31:48;;;;;;;6.50;2.10;;;14.60;94.00;;;;;;5093695;28;20059;-68
2021/10/25 11:34:24;;;;;;;12.45;2.65;;;14.60;93.00;;;;;;5074271;28;20097;-67
2021/10/25 11:37:11;;;;;;;11.73;2.88;;;14.70;93.70;;;;;;5090489;28;20044;-67
2021/10/25 11:39:53;;;;;;;9.68;3.10;;;14.60;93.70;;;;;;5090207;28;20066;-67
2021/10/25 11:42:25;;;;;;;7.70;2.13;;;14.70;94.50;;;;;;5090552;28;20140;-68
2021/10/25 11:44:53;;;;;;;10.88;2.47;;;14.80;93.90;;;;;;5072883;28;20171;-69
2021/10/25 11:47:27;;;;;;;7.85;2.30;;;14.80;93.70;;;;;;5092249;28;20043;-68
2021/10/25 11:50:28;;;;;;;164.90;125.90;;;14.90;94.20;;;;;;5089832;28;20526;-67
2021/10/25 11:53:05;;;;;;;50.90;36.92;;;14.90;93.50;;;;;;5052811;28;20040;-67
2021/10/25 11:55:32;;;;;;;9.32;5.43;;;14.90;94.10;;;;;;5089941;28;20051;-67
2021/10/25 11:58:19;;;;;;;5.35;3.17;;;15.00;94.00;;;;;;5091635;28;20095;-66
2021/10/25 12:00:49;;;;;;;9.50;2.50;;;15.00;94.00;;;;;;5091752;28;20055;-67
2021/10/25 12:03:19;;;;;;;7.18;2.45;;;15.00;93.70;;;;;;5108797;28;20047;-66
2021/10/25 12:05:46;;;;;;;7.57;2.20;;;15.00;93.00;;;;;;5088159;28;20040;-67
2021/10/25 12:08:14;;;;;;;9.18;2.78;;;15.00;94.00;;;;;;5088005;28;20126;-67
2021/10/25 12:10:41;;;;;;;9.60;3.00;;;15.00;94.60;;;;;;5088514;28;20055;-67
2021/10/25 12:13:10;;;;;;;7.30;2.58;;;14.90;95.00;;;;;;5088266;28;20054;-67
2021/10/25 12:15:47;;;;;;;10.07;3.60;;;14.80;95.60;;;;;;5088693;28;20048;-67
2021/10/25 12:18:15;;;;;;;7.97;2.75;;;14.80;95.70;;;;;;5072310;28;20351;-67
2021/10/25 12:20:42;;;;;;;6.90;2.92;;;14.90;96.40;;;;;;5085198;28;20495;-68
2021/10/25 12:23:27;;;;;;;10.07;3.13;;;14.90;96.50;;;;;;5084591;28;20399;-68
2021/10/25 12:26:03;;;;;;;10.50;2.90;;;15.00;96.90;;;;;;5091275;28;20047;-67
2021/10/25 12:28:33;;;;;;;7.70;2.70;;;15.00;96.60;;;;;;5090096;28;20080;-68
2021/10/25 12:31:07;;;;;;;9.40;2.30;;;15.00;96.50;;;;;;5072258;28;20052;-67
2021/10/25 12:33:38;;;;;;;9.73;2.90;;;15.10;97.30;;;;;;5087190;28;20052;-68
2021/10/25 12:36:13;;;;;;;9.55;3.17;;;15.20;96.90;;;;;;5089392;28;20404;-67
2021/10/25 12:38:42;;;;;;;12.45;3.40;;;15.20;97.40;;;;;;5088630;28;20044;-68
2021/10/25 12:41:09;;;;;;;6.78;2.58;;;15.20;97.70;;;;;;5088999;28;20075;-68
2021/10/25 12:43:44;;;;;;;11.45;2.97;;;15.10;96.50;;;;;;5090928;28;20052;-68
2021/10/25 12:46:15;;;;;;;7.93;2.15;;;15.00;97.50;;;;;;5088515;28;20048;-68
2021/10/25 12:48:50;;;;;;;9.05;3.20;;;14.90;98.20;;;;;;5089256;28;20045;-68
2021/10/25 12:51:18;;;;;;;49.38;36.60;;;14.70;98.50;;;;;;5084867;28;20105;-68
2021/10/25 12:53:46;;;;;;;35.77;25.30;;;14.60;98.00;;;;;;5089257;28;20048;-70
2021/10/25 12:56:14;;;;;;;11.25;4.88;;;14.60;99.00;;;;;;5104385;28;20367;-68
2021/10/25 12:58:41;;;;;;;18.02;5.03;;;14.50;99.30;;;;;;5089392;28;20389;-68
2021/10/25 13:01:11;;;;;;;6.55;3.13;;;14.60;99.60;;;;;;5089657;28;20073;-68
2021/10/25 13:03:47;;;;;;;8.98;2.95;;;14.60;98.80;;;;;;5093472;28;20082;-68
2021/10/25 13:06:14;;;;;;;7.25;2.55;;;14.60;98.60;;;;;;5096850;28;20066;-68
2021/10/25 13:08:41;;;;;;;7.38;2.92;;;14.70;98.10;;;;;;5089824;28;20067;-68
2021/10/25 13:11:13;;;;;;;6.60;2.60;;;14.70;98.20;;;;;;5088729;28;20135;-68
2021/10/25 13:13:44;;;;;;;9.38;2.45;;;14.90;99.00;;;;;;5090462;28;20145;-68
2021/10/25 13:16:14;;;;;;;7.05;1.98;;;15.00;98.40;;;;;;5072844;28;20479;-66
2021/10/25 13:18:41;;;;;;;5.85;1.80;;;15.10;96.70;;;;;;5087654;28;20097;-67
2021/10/25 13:21:08;;;;;;;6.28;2.42;;;15.10;97.60;;;;;;5089470;28;20357;-67
2021/10/25 13:23:38;;;;;;;7.55;2.78;;;15.10;97.40;;;;;;5067798;28;20174;-66
2021/10/25 13:26:06;;;;;;;11.43;2.40;;;15.10;97.70;;;;;;5084211;28;20055;-66
2021/10/25 13:28:33;;;;;;;6.55;1.63;;;15.00;97.60;;;;;;5086535;28;20097;-67
2021/10/25 13:31:00;;;;;;;11.38;4.03;;;15.10;97.00;;;;;;5087814;28;20404;-66
2021/10/25 13:33:34;;;;;;;6.88;1.88;;;15.10;97.30;;;;;;5082161;28;20048;-71
2021/10/25 13:36:02;;;;;;;5.47;2.15;;;15.00;97.50;;;;;;5078331;28;20135;-67
2021/10/25 13:38:29;;;;;;;8.82;2.10;;;15.00;96.80;;;;;;5085882;28;20076;-68
2021/10/25 13:40:57;;;;;;;8.55;3.22;;;15.00;97.20;;;;;;5079712;28;20049;-66
2021/10/25 13:43:31;;;;;;;6.90;3.72;;;15.00;97.50;;;;;;5078077;28;20076;-67
2021/10/25 13:45:58;;;;;;;8.15;3.35;;;15.10;97.30;;;;;;5077148;28;20080;-68
2021/10/25 13:48:25;;;;;;;11.52;2.75;;;15.10;97.00;;;;;;5086954;28;20499;-71
2021/10/25 13:50:54;;;;;;;38.55;28.05;;;15.00;96.20;;;;;;5080887;28;20044;-67
2021/10/25 13:53:21;;;;;;;19.42;8.77;;;15.00;96.50;;;;;;5069707;28;20064;-73
2021/10/25 13:55:48;;;;;;;9.07;3.63;;;14.90;96.70;;;;;;5091152;28;20051;-65
2021/10/25 13:58:16;;;;;;;9.40;2.58;;;14.90;97.20;;;;;;5088528;28;20123;-65
2021/10/25 14:00:43;;;;;;;6.07;2.97;;;14.90;96.70;;;;;;5079148;28;20051;-70
2021/10/25 14:03:10;;;;;;;15.20;4.10;;;15.00;97.10;;;;;;5096409;28;20083;-66
2021/10/25 14:05:37;;;;;;;6.18;2.50;;;14.90;96.90;;;;;;5093648;28;20452;-65
2021/10/25 14:08:04;;;;;;;7.28;2.40;;;14.90;96.30;;;;;;5088062;28;20097;-66
2021/10/25 14:13:11;;;;;;;8.30;2.83;;;14.80;96.60;;;;;;5111836;28;20050;-68
2021/10/25 14:15:45;;;;;;;7.85;2.40;;;14.80;96.50;;;;;;5070511;28;20454;-69
2021/10/25 14:18:13;;;;;;;10.27;2.60;;;14.90;96.60;;;;;;5083532;28;20055;-68
2021/10/25 14:20:40;;;;;;;5.38;1.80;;;14.90;96.20;;;;;;5074482;28;20049;-68
2021/10/25 14:23:09;;;;;;;7.97;1.80;;;14.90;96.10;;;;;;5092622;28;20123;-68
2021/10/25 14:25:36;;;;;;;;;;;14.90;95.00;;;;;;5093320;28;20048;-68
2021/10/25 14:28:05;;;;;;;7.97;1.90;;;14.80;95.60;;;;;;5090456;28;20419;-68
2021/10/25 14:30:32;;;;;;;5.70;2.10;;;14.80;95.70;;;;;;5088207;28;20052;-70
2021/10/25 14:32:59;;;;;;;4.55;2.40;;;14.80;95.30;;;;;;5093128;28;20044;-69
2021/10/25 14:35:27;;;;;;;4.18;1.58;;;14.80;94.70;;;;;;5089990;28;20063;-70
2021/10/25 14:37:57;;;;;;;4.35;1.73;;;14.80;94.90;;;;;;5090447;28;20084;-75
2021/10/25 14:40:39;;;;;;;5.23;1.80;;;14.70;94.60;;;;;;5090850;28;20154;-78
2021/10/25 14:43:13;;;;;;;273.02;236.30;;;14.70;94.80;;;;;;5089738;28;20050;-72
2021/10/25 14:45:45;;;;;;;20.58;15.27;;;14.70;94.70;;;;;;5089544;28;20650;-74
2021/10/25 14:58:24;;;;;;;5.55;2.80;;;14.70;94.30;;;;;;5070957;28;20482;-74
2021/10/25 15:00:51;;;;;;;6.68;2.40;;;14.70;94.50;;;;;;5070118;28;20048;-73
2021/10/25 15:03:21;;;;;;;5.15;2.22;;;14.70;94.70;;;;;;5101246;28;20585;-72
2021/10/25 15:05:49;;;;;;;5.07;1.98;;;14.70;94.90;;;;;;5088855;28;20120;-68
2021/10/25 15:08:16;;;;;;;4.03;1.50;;;14.70;94.80;;;;;;5090282;28;20040;-66
2021/10/25 15:10:43;;;;;;;5.13;1.98;;;14.60;94.50;;;;;;5089352;28;20054;-66
2021/10/25 15:13:10;;;;;;;4.55;2.17;;;14.70;94.80;;;;;;5090692;28;20052;-67
2021/10/25 15:15:37;;;;;;;7.50;1.67;;;14.70;95.10;;;;;;5089829;28;20044;-67
2021/10/25 15:18:04;;;;;;;4.88;1.92;;;14.80;95.50;;;;;;5102451;28;20058;-67
2021/10/25 15:20:32;;;;;;;4.05;1.60;;;14.80;94.60;;;;;;5073605;28;20044;-67
2021/10/25 15:22:59;;;;;;;4.15;1.73;;;14.80;95.40;;;;;;5087619;28;20093;-69
2021/10/25 15:25:37;;;;;;;10.05;2.17;;;14.80;94.70;;;;;;5084844;28;20120;-72
2021/10/25 15:28:06;;;;;;;5.00;1.70;;;14.80;95.30;;;;;;5069400;28;20062;-69
2021/10/25 15:30:34;;;;;;;4.22;1.75;;;14.70;94.70;;;;;;5086217;28;20507;-68
2021/10/25 15:33:02;;;;;;;5.88;1.70;;;14.70;94.50;;;;;;5103758;28;20043;-78
2021/10/25 15:35:30;;;;;;;3.85;2.00;;;14.70;95.10;;;;;;5087555;28;20149;-77
2021/10/25 15:37:57;;;;;;;5.07;2.25;;;14.70;94.60;;;;;;5086122;28;20471;-75
2021/10/25 15:40:27;;;;;;;7.50;3.67;;;14.70;95.10;;;;;;5091229;28;20043;-77
2021/10/25 15:42:55;;;;;;;6.35;3.20;;;14.70;95.20;;;;;;5090840;28;20410;-72
2021/10/25 15:45:22;;;;;;;7.00;3.80;;;14.70;94.90;;;;;;5089310;28;20044;-75
2021/10/25 15:47:49;;;;;;;7.88;3.63;;;14.70;95.10;;;;;;5079007;28;20432;-75
2021/10/25 15:50:16;;;;;;;6.25;3.08;;;14.80;94.40;;;;;;5090533;28;20524;-80
2021/10/25 15:52:43;;;;;;;10.48;3.00;;;14.80;94.20;;;;;;5082815;28;20047;-71
2021/10/25 15:55:11;;;;;;;5.63;2.50;;;14.70;94.00;;;;;;5090026;28;20048;-76
2021/10/25 15:57:38;;;;;;;6.40;2.03;;;14.70;94.30;;;;;;5085555;28;20047;-70
2021/10/25 16:00:08;;;;;;;5.13;1.90;;;14.60;94.70;;;;;;5086133;28;20040;-69
2021/10/25 16:02:36;;;;;;;3.40;1.75;;;14.60;94.80;;;;;;5051874;28;20055;-68
2021/10/25 16:05:03;;;;;;;8.10;1.80;;;14.50;94.70;;;;;;5068972;28;20084;-68
2021/10/25 16:07:30;;;;;;;4.40;2.10;;;14.40;95.10;;;;;;5086891;28;20059;-69
2021/10/25 16:09:58;;;;;;;5.07;2.40;;;14.40;95.20;;;;;;5096469;28;20479;-69
2021/10/25 16:12:25;;;;;;;5.93;2.30;;;14.30;94.90;;;;;;5074783;28;20112;-69
2021/10/25 16:14:52;;;;;;;5.18;1.98;;;14.30;95.40;;;;;;5090535;28;20051;-77
2021/10/25 16:17:19;;;;;;;16.85;12.38;;;14.20;96.10;;;;;;5070633;28;20096;-77
2021/10/25 16:19:50;;;;;;;24.90;18.15;;;14.20;96.10;;;;;;5086515;28;20127;-75
2021/10/25 16:22:17;;;;;;;7.65;3.80;;;14.30;96.00;;;;;;5089898;28;20048;-77
2021/10/25 16:24:44;;;;;;;29.23;20.38;;;14.30;96.00;;;;;;5087453;28;20040;-76
2021/10/25 16:27:11;;;;;;;21.52;14.68;;;14.30;96.10;;;;;;5089202;28;20403;-74
2021/10/25 16:29:39;;;;;;;7.85;3.63;;;14.20;95.90;;;;;;5089829;28;20135;-77
2021/10/25 16:32:06;;;;;;;7.20;2.75;;;14.20;96.60;;;;;;5088042;28;20154;-87
2021/10/25 16:34:34;;;;;;;8.43;3.25;;;14.20;97.70;;;;;;5086460;28;20509;-71
2021/10/25 16:37:01;;;;;;;7.30;3.15;;;14.10;98.00;;;;;;5088367;28;20048;-71
2021/10/25 16:39:27;;;;;;;6.75;3.85;;;14.00;97.80;;;;;;5074884;28;20109;-69
2021/10/25 16:41:55;;;;;;;9.40;2.88;;;13.90;98.00;;;;;;5090007;28;20044;-69
2021/10/25 16:44:22;;;;;;;7.40;2.50;;;13.90;98.20;;;;;;5090205;28;20052;-69
2021/10/25 16:46:51;;;;;;;5.80;3.03;;;13.90;98.10;;;;;;5089070;28;20050;-68
2021/10/25 16:49:24;;;;;;;6.63;2.55;;;13.80;98.10;;;;;;5071384;28;20123;-69
2021/10/25 17:05:18;;;;;;;10.48;4.68;;;13.50;99.50;;;;;;5081047;28;20040;-70
2021/10/25 17:10:30;;;;;;;10.60;6.40;;;13.30;99.70;;;;;;5096573;28;20139;-70
2021/10/25 17:12:58;;;;;;;11.20;6.13;;;13.30;99.90;;;;;;5086277;28;20052;-69
2021/10/25 17:15:25;;;;;;;10.70;5.97;;;13.30;99.80;;;;;;5087121;28;20118;-68
2021/10/25 17:17:52;;;;;;;6.90;6.00;;;13.20;99.90;;;;;;5089713;28;20082;-69
2021/10/25 17:20:19;;;;;;;10.02;5.60;;;13.20;99.90;;;;;;5088710;28;20055;-70
2021/10/25 17:22:49;;;;;;;8.60;5.43;;;13.10;99.90;;;;;;5088865;28;20058;-69
2021/10/25 17:25:16;;;;;;;6.63;3.80;;;13.10;99.90;;;;;;5073780;28;20070;-69
2021/10/25 17:27:43;;;;;;;55.83;37.63;;;13.10;99.90;;;;;;5093327;28;20427;-69
2021/10/25 17:30:10;;;;;;;141.20;99.88;;;13.10;99.90;;;;;;5076823;28;20052;-69
2021/10/25 17:32:37;;;;;;;14.35;8.18;;;13.10;99.90;;;;;;5090379;28;20048;-69
2021/10/25 17:35:05;;;;;;;8.80;4.80;;;13.00;99.80;;;;;;5089132;28;20060;-69
2021/10/25 17:37:34;;;;;;;6.82;3.58;;;13.00;99.90;;;;;;5090000;28;20105;-68
2021/10/25 17:40:02;;;;;;;6.65;3.10;;;12.90;99.60;;;;;;5096897;28;20064;-69
2021/10/25 17:42:30;;;;;;;4.82;2.78;;;12.90;99.90;;;;;;5092935;28;20376;-69
2021/10/25 17:44:57;;;;;;;8.05;3.15;;;12.80;99.70;;;;;;5073876;28;20534;-69
2021/10/25 17:47:23;;;;;;;7.60;3.63;;;12.70;99.70;;;;;;5076919;28;20411;-73
2021/10/25 17:49:53;;;;;;;10.57;5.05;;;12.60;99.50;;;;;;5090741;28;20105;-69
2021/10/25 17:52:21;;;;;;;40.00;30.50;;;12.60;99.80;;;;;;5090735;28;20059;-69
2021/10/25 17:54:48;;;;;;;11.35;5.43;;;12.50;99.90;;;;;;5074497;28;20123;-69
2021/10/25 17:57:15;;;;;;;12.65;4.80;;;12.40;99.80;;;;;;5075948;28;20044;-72
2021/10/25 17:59:48;;;;;;;7.88;3.60;;;12.40;99.90;;;;;;5093095;28;20052;-68
2021/10/25 18:02:17;;;;;;;4.45;2.80;;;12.30;99.50;;;;;;5098062;28;20052;-69
2021/10/25 18:04:46;;;;;;;8.35;2.75;;;12.20;99.50;;;;;;5091855;28;20143;-68
2021/10/25 18:07:17;;;;;;;7.75;4.18;;;12.10;99.70;;;;;;5091609;28;20439;-68
2021/10/25 18:09:47;;;;;;;10.75;4.07;;;12.10;99.90;;;;;;5091354;28;20048;-68
2021/10/25 18:12:14;;;;;;;;;;;12.00;99.90;;;;;;5056424;28;20048;-68
2021/10/25 18:14:41;;;;;;;145.63;103.65;;;11.90;99.90;;;;;;5098384;28;19924;-69
2021/10/25 18:17:09;;;;;;;20.85;14.45;;;11.90;99.60;;;;;;5090863;28;20453;-69
2021/10/25 18:19:36;;;;;;;11.13;5.88;;;11.80;99.90;;;;;;5096921;28;20048;-69
2021/10/25 18:22:07;;;;;;;7.95;3.85;;;11.80;99.90;;;;;;5074307;28;20075;-69
2021/10/25 18:24:34;;;;;;;7.20;3.25;;;11.80;99.90;;;;;;5071511;28;20048;-69
2021/10/25 18:27:02;;;;;;;6.70;3.38;;;11.70;99.90;;;;;;5080227;28;20048;-68
2021/10/25 18:29:29;;;;;;;5.28;2.88;;;11.70;99.90;;;;;;5086856;28;20322;-68
2021/10/25 18:31:56;;;;;;;10.68;6.07;;;11.70;99.90;;;;;;5098877;28;20105;-68
2021/10/25 18:34:23;;;;;;;25.83;20.23;;;11.70;99.90;;;;;;5092383;28;20040;-69
2021/10/25 18:36:50;;;;;;;69.35;54.40;;;11.70;99.90;;;;;;5082917;28;20404;-70
2021/10/25 18:39:17;;;;;;;17.42;12.50;;;11.70;99.90;;;;;;5091403;28;20059;-69
2021/10/25 18:41:44;;;;;;;10.98;5.15;;;11.60;99.90;;;;;;5092955;28;20387;-69
2021/10/25 18:44:11;;;;;;;10.20;4.57;;;11.60;99.90;;;;;;5091669;28;20056;-68
2021/10/25 18:46:39;;;;;;;6.60;3.55;;;11.50;99.90;;;;;;5058569;28;20138;-68
2021/10/25 18:49:06;;;;;;;10.15;4.03;;;11.50;99.90;;;;;;5073677;28;20051;-68
2021/10/25 18:51:33;;;;;;;10.57;3.53;;;11.40;99.90;;;;;;5089149;28;20859;-68
2021/10/25 18:54:02;;;;;;;8.05;4.50;;;11.40;99.90;;;;;;5093311;28;20123;-68
2021/10/25 18:56:29;;;;;;;8.13;4.15;;;11.40;99.90;;;;;;5093043;28;20051;-68
2021/10/25 18:58:57;;;;;;;6.15;3.30;;;11.30;99.90;;;;;;5091053;28;20120;-70
2021/10/25 19:01:24;;;;;;;6.85;3.72;;;11.30;99.90;;;;;;5095626;28;20063;-68
2021/10/25 19:03:52;;;;;;;9.18;4.25;;;11.30;99.90;;;;;;5082720;28;20070;-70
2021/10/25 19:06:19;;;;;;;7.78;4.10;;;11.30;99.90;;;;;;5113423;28;20055;-68
2021/10/25 19:08:46;;;;;;;7.10;3.70;;;11.20;99.90;;;;;;5082800;28;20044;-68
2021/10/25 19:11:13;;;;;;;8.40;4.18;;;11.20;99.90;;;;;;5106296;28;20054;-68
2021/10/25 19:13:40;;;;;;;7.65;4.20;;;11.10;99.90;;;;;;5100914;28;20056;-69
2021/10/25 19:16:08;;;;;;;13.02;5.22;;;11.10;99.90;;;;;;5091937;28;20202;-69
2021/10/25 19:18:35;;;;;;;29.67;20.58;;;11.00;99.90;;;;;;5091746;28;20044;-69
2021/10/25 19:21:03;;;;;;;66.60;54.40;;;11.00;99.90;;;;;;5091412;28;20062;-69
2021/10/25 19:23:32;;;;;;;17.45;12.32;;;11.00;99.90;;;;;;5074112;28;20539;-69
2021/10/25 19:25:59;;;;;;;14.55;9.63;;;11.00;99.90;;;;;;5096271;28;20044;-69
2021/10/25 19:28:26;;;;;;;10.35;7.97;;;11.00;99.90;;;;;;5112559;28;20462;-69
2021/10/25 19:30:53;;;;;;;28.02;19.13;;;10.90;99.90;;;;;;5090105;28;20384;-69
2021/10/25 19:33:20;;;;;;;122.60;82.43;;;10.90;99.90;;;;;;5106807;28;20387;-69
2021/10/25 19:35:47;;;;;;;21.55;14.52;;;10.80;99.90;;;;;;5080158;28;20101;-69
2021/10/25 19:38:14;;;;;;;16.88;10.07;;;10.80;99.90;;;;;;5075380;28;20049;-69
2021/10/25 19:40:42;;;;;;;20.73;7.38;;;10.80;99.90;;;;;;5087883;28;20051;-70
2021/10/25 19:43:09;;;;;;;7.68;4.47;;;10.80;99.90;;;;;;5089629;28;20090;-69
2021/10/25 19:45:36;;;;;;;7.93;4.00;;;10.70;99.90;;;;;;5089703;28;20094;-69
2021/10/25 19:48:04;;;;;;;13.80;4.75;;;10.70;99.90;;;;;;5087737;28;20438;-70
2021/10/25 19:50:31;;;;;;;10.27;5.18;;;10.70;99.90;;;;;;5072662;28;20070;-70
2021/10/25 19:53:01;;;;;;;8.63;4.20;;;10.70;99.90;;;;;;5089849;28;20079;-70
2021/10/25 19:55:32;;;;;;;7.07;4.22;;;10.60;99.90;;;;;;5091895;28;20054;-68
2021/10/25 19:58:19;;;;;;;7.68;4.22;;;10.60;99.90;;;;;;5091783;28;20411;-71
2021/10/25 20:00:46;;;;;;;6.68;4.40;;;10.60;99.90;;;;;;5089222;28;20047;-70
2021/10/25 20:03:26;;;;;;;10.43;4.70;;;10.60;99.90;;;;;;5104105;28;20048;-70
2021/10/25 20:05:54;;;;;;;12.45;4.82;;;10.60;99.90;;;;;;5080337;28;20075;-70
2021/10/25 20:08:31;;;;;;;9.23;4.35;;;10.60;99.90;;;;;;5081896;28;20451;-71
2021/10/25 20:10:58;;;;;;;8.43;4.20;;;10.50;99.90;;;;;;5092005;28;20078;-70
2021/10/25 20:13:27;;;;;;;37.67;28.53;;;10.50;99.90;;;;;;5084257;28;20044;-69
2021/10/25 20:15:55;;;;;;;252.93;176.18;;;10.50;99.90;;;;;;5073166;28;20285;-70
2021/10/25 20:18:25;;;;;;;21.58;14.60;;;10.50;99.90;;;;;;5072259;28;20054;-70
2021/10/25 20:20:53;;;;;;;12.07;6.90;;;10.50;99.90;;;;;;5076001;28;20048;-71
2021/10/25 20:23:20;;;;;;;9.90;5.28;;;10.50;99.90;;;;;;5089058;28;20139;-70
2021/10/25 20:25:49;;;;;;;9.57;4.13;;;10.50;99.90;;;;;;5072778;28;20048;-70
2021/10/25 20:28:16;;;;;;;11.65;3.97;;;10.40;99.90;;;;;;5089151;28;20092;-71
2021/10/25 20:30:43;;;;;;;11.52;5.05;;;10.40;99.90;;;;;;5089014;28;20051;-70
2021/10/25 20:33:11;;;;;;;10.18;6.00;;;10.40;99.90;;;;;;5089942;28;20044;-70
2021/10/25 20:35:38;;;;;;;10.10;4.50;;;10.30;99.90;;;;;;5091101;28;20052;-69
2021/10/25 20:38:05;;;;;;;8.00;4.07;;;10.30;99.90;;;;;;5069366;28;20131;-70
2021/10/25 20:40:32;;;;;;;8.43;4.22;;;10.30;99.90;;;;;;5096799;28;20531;-71
2021/10/25 20:42:59;;;;;;;12.98;4.35;;;10.30;99.90;;;;;;5090180;28;20043;-71
2021/10/25 20:45:26;;;;;;;10.85;4.30;;;10.30;99.90;;;;;;5088753;28;20130;-71
2021/10/25 20:47:55;;;;;;;8.13;4.38;;;10.20;99.90;;;;;;5089060;28;20052;-70
2021/10/25 20:50:22;;;;;;;9.50;5.13;;;10.20;99.90;;;;;;5090830;28;20202;-70
2021/10/25 20:52:49;;;;;;;9.57;4.90;;;10.20;99.90;;;;;;5090412;28;20048;-71
2021/10/25 20:55:16;;;;;;;9.55;3.55;;;10.20;99.90;;;;;;5088793;28;20044;-71
2021/10/25 20:57:43;;;;;;;9.77;3.80;;;10.10;99.90;;;;;;5089883;28;20056;-71
2021/10/25 21:00:11;;;;;;;8.82;4.47;;;10.10;99.90;;;;;;5087754;28;20491;-71
2021/10/25 21:02:38;;;;;;;10.15;5.80;;;10.10;99.90;;;;;;5091565;28;20361;-71
2021/10/25 21:05:05;;;;;;;6.53;4.35;;;10.10;99.90;;;;;;5090368;28;20052;-70
2021/10/25 21:07:33;;;;;;;10.05;5.45;;;10.10;99.90;;;;;;5088085;28;20044;-70
2021/10/25 21:10:00;;;;;;;7.05;3.58;;;10.00;99.90;;;;;;5088039;28;20043;-70
2021/10/25 21:12:27;;;;;;;8.20;4.18;;;10.00;99.90;;;;;;5072311;28;20082;-69
2021/10/25 21:14:54;;;;;;;6.78;3.97;;;10.00;99.90;;;;;;5088091;28;20553;-70
2021/10/25 21:17:21;;;;;;;10.57;4.20;;;9.90;99.90;;;;;;5083692;28;20036;-70
2021/10/25 21:19:48;;;;;;;9.30;4.20;;;9.90;99.90;;;;;;5089569;28;20097;-70
2021/10/25 21:22:19;;;;;;;8.95;4.40;;;9.90;99.90;;;;;;5088780;28;20048;-70
2021/10/25 21:24:46;;;;;;;7.97;4.20;;;9.80;99.90;;;;;;5089962;28;20135;-71
2021/10/25 21:27:13;;;;;;;8.18;4.35;;;9.80;99.90;;;;;;5088181;28;20048;-70
2021/10/25 21:29:40;;;;;;;6.97;4.03;;;9.80;99.90;;;;;;5088500;28;20043;-70
2021/10/25 21:32:06;;;;;;;10.07;4.43;;;9.80;99.90;;;;;;5093602;28;20059;-70
2021/10/25 21:34:34;;;;;;;7.22;4.07;;;9.80;99.90;;;;;;5068232;28;20069;-70
2021/10/25 21:37:01;;;;;;;8.00;3.33;;;9.80;99.90;;;;;;5077581;28;20056;-72
2021/10/25 21:39:28;;;;;;;6.82;3.70;;;9.70;99.90;;;;;;5084772;28;20086;-70
2021/10/25 21:41:55;;;;;;;6.25;4.15;;;9.70;99.90;;;;;;5089988;28;20048;-71
2021/10/25 21:44:23;;;;;;;11.38;5.03;;;9.80;99.90;;;;;;5088784;28;20111;-69
2021/10/25 21:46:51;;;;;;;8.63;4.63;;;9.70;99.90;;;;;;5087918;28;20131;-70
2021/10/25 21:49:18;;;;;;;10.15;4.15;;;9.70;99.90;;;;;;5088823;28;20436;-70
2021/10/25 21:51:45;;;;;;;6.93;3.88;;;9.70;99.90;;;;;;5088495;28;20491;-70
2021/10/25 21:54:13;;;;;;;5.95;3.47;;;9.70;99.90;;;;;;5089055;28;20048;-71
2021/10/25 21:56:40;;;;;;;9.93;4.32;;;9.70;99.90;;;;;;5088278;28;20766;-72
2021/10/25 21:59:07;;;;;;;7.85;3.85;;;9.60;99.90;;;;;;5088093;28;20126;-71
2021/10/25 22:01:35;;;;;;;8.57;4.60;;;9.60;99.90;;;;;;5085777;28;20080;-71
2021/10/25 22:04:02;;;;;;;7.50;3.38;;;9.60;99.90;;;;;;5077933;28;20290;-70
2021/10/25 22:06:29;;;;;;;9.43;3.72;;;9.60;99.90;;;;;;5088819;28;20139;-70
2021/10/25 22:08:56;;;;;;;8.30;3.33;;;9.50;99.90;;;;;;5088079;28;20112;-70
2021/10/25 22:11:24;;;;;;;10.98;3.15;;;9.50;99.90;;;;;;5089109;28;20055;-70
2021/10/25 22:13:51;;;;;;;6.13;3.45;;;9.50;99.90;;;;;;5055126;28;20048;-70
2021/10/25 22:16:17;;;;;;;6.57;2.88;;;9.50;99.90;;;;;;5089131;28;20116;-71
2021/10/25 22:18:47;;;;;;;5.78;2.92;;;9.50;99.90;;;;;;5070833;28;20504;-70
2021/10/25 22:21:14;;;;;;;11.60;3.03;;;9.50;99.90;;;;;;5087509;28;20040;-71